Time;durP1;ratioP1;P1;durP2;ratioP2;P2;SDS_P1;SDS_P2;PMS_P1;PMS_P2;Temp;Humidity;BMP_temperature;BMP_pressure;BME280_temperature;BME280_humidity;BME280_pressure;Samples;Min_cycle;Max_cycle;Signal;HPM_P1;HPM_P2
2023/01/15 00:01:33;;;;;;;13.40;2.30;;;6.70;99.90;;;;;;5066132;28;20127;-50
2023/01/15 00:03:59;;;;;;;13.20;1.92;;;6.80;99.90;;;;;;5068089;28;20074;-49
2023/01/15 00:06:27;;;;;;;6.13;1.33;;;6.80;99.90;;;;;;5067592;28;20079;-49
2023/01/15 00:08:53;;;;;;;13.30;1.70;;;6.70;99.90;;;;;;5068781;28;20067;-51
2023/01/15 00:11:20;;;;;;;9.40;1.55;;;6.70;99.90;;;;;;5070196;28;20099;-49
2023/01/15 00:13:46;;;;;;;11.38;1.88;;;6.70;99.90;;;;;;5069832;28;20044;-50
2023/01/15 00:16:13;;;;;;;16.25;2.10;;;6.60;99.90;;;;;;5067379;28;20029;-48
2023/01/15 00:18:40;;;;;;;9.18;2.00;;;6.70;99.90;;;;;;5069237;28;20032;-52
2023/01/15 00:21:08;;;;;;;15.70;1.70;;;6.70;99.90;;;;;;5069703;28;20028;-50
2023/01/15 00:29:09;;;;;;;7.80;1.45;;;6.70;99.90;;;;;;5069523;28;20051;-46
2023/01/15 00:31:35;;;;;;;11.80;1.80;;;6.70;99.90;;;;;;5070052;28;20115;-49
2023/01/15 00:34:01;;;;;;;15.00;1.70;;;6.60;99.90;;;;;;5069775;28;20044;-49
2023/01/15 00:36:27;;;;;;;9.07;1.63;;;6.70;99.90;;;;;;5069768;28;20471;-46
2023/01/15 00:38:53;;;;;;;9.07;1.50;;;6.60;99.90;;;;;;5068604;28;20037;-48
2023/01/15 00:41:19;;;;;;;8.73;1.38;;;6.60;99.90;;;;;;5071019;28;20097;-50
2023/01/15 00:43:45;;;;;;;10.50;1.40;;;6.70;99.90;;;;;;5073814;28;20044;-48
2023/01/15 00:46:11;;;;;;;14.40;2.13;;;6.60;99.90;;;;;;5072203;28;20029;-47
2023/01/15 00:48:37;;;;;;;10.88;1.80;;;6.80;99.90;;;;;;5073553;28;20053;-49
2023/01/15 00:51:03;;;;;;;11.02;1.80;;;6.60;99.90;;;;;;5073376;28;20037;-48
2023/01/15 00:53:29;;;;;;;11.32;2.00;;;6.60;99.90;;;;;;5073568;28;20039;-49
2023/01/15 00:55:55;;;;;;;10.43;1.95;;;6.60;99.90;;;;;;5073356;28;20074;-51
2023/01/15 00:58:21;;;;;;;10.70;1.88;;;6.60;99.90;;;;;;5073222;28;20404;-50
2023/01/15 01:00:56;;;;;;;12.07;1.92;;;6.60;99.90;;;;;;5071894;28;20040;-49
2023/01/15 01:03:22;;;;;;;;;;;6.60;99.90;;;;;;5073401;28;20439;-51
2023/01/15 01:05:47;;;;;;;13.02;1.92;;;6.60;99.90;;;;;;5072209;28;19916;-51
2023/01/15 01:08:14;;;;;;;10.73;1.52;;;6.90;99.90;;;;;;5070382;28;20032;-47
2023/01/15 01:10:39;;;;;;;15.40;1.67;;;6.60;99.90;;;;;;5073045;28;20087;-49
2023/01/15 01:13:05;;;;;;;13.25;1.80;;;6.60;99.90;;;;;;5075987;28;20064;-48
2023/01/15 01:15:35;;;;;;;11.00;1.63;;;6.60;99.90;;;;;;5071241;28;20036;-48
2023/01/15 01:18:01;;;;;;;14.43;2.38;;;6.60;99.90;;;;;;5073210;28;20111;-48
2023/01/15 01:20:27;;;;;;;12.38;2.20;;;6.50;99.90;;;;;;5071648;28;20033;-50
2023/01/15 01:22:53;;;;;;;15.27;2.10;;;6.50;99.90;;;;;;5072768;28;20043;-49
2023/01/15 01:25:20;;;;;;;12.20;1.85;;;6.50;99.90;;;;;;5073219;28;20076;-47
2023/01/15 01:27:46;;;;;;;9.35;1.75;;;6.50;99.90;;;;;;5082729;28;20047;-49
2023/01/15 01:30:12;;;;;;;11.93;1.58;;;6.50;99.90;;;;;;5085304;28;20115;-47
2023/01/15 01:32:38;;;;;;;12.80;1.80;;;6.50;99.90;;;;;;5072792;28;20047;-51
2023/01/15 01:35:05;;;;;;;9.20;1.60;;;6.50;99.90;;;;;;5072839;28;20115;-49
2023/01/15 01:37:31;;;;;;;16.05;1.85;;;6.50;99.90;;;;;;5072550;28;20083;-49
2023/01/15 01:39:56;;;;;;;9.88;1.73;;;6.40;99.90;;;;;;5072709;28;20425;-47
2023/01/15 01:42:22;;;;;;;14.63;1.80;;;6.40;99.90;;;;;;5078375;28;20035;-49
2023/01/15 01:44:49;;;;;;;14.50;1.80;;;6.40;99.90;;;;;;5073366;28;20538;-50
2023/01/15 01:47:21;;;;;;;9.75;1.80;;;6.40;99.90;;;;;;5076744;28;20045;-49
2023/01/15 01:50:00;;;;;;;13.57;1.80;;;6.30;99.90;;;;;;5072933;28;20040;-46
2023/01/15 01:52:31;;;;;;;11.80;1.45;;;6.30;99.90;;;;;;5071344;28;20127;-49
2023/01/15 01:54:57;;;;;;;13.07;1.98;;;6.30;99.90;;;;;;5072381;28;20040;-48
2023/01/15 01:57:24;;;;;;;17.85;2.55;;;6.30;99.90;;;;;;5072545;28;20044;-48
2023/01/15 01:59:51;;;;;;;13.82;2.47;;;6.30;99.90;;;;;;5071035;28;20123;-50
2023/01/15 02:02:20;;;;;;;12.77;2.45;;;6.30;99.90;;;;;;5073775;28;20071;-50
2023/01/15 02:04:47;;;;;;;12.60;1.75;;;6.30;99.90;;;;;;5072098;28;20124;-46
2023/01/15 02:07:13;;;;;;;15.40;1.92;;;6.20;99.90;;;;;;5072230;28;20045;-48
2023/01/15 02:09:39;;;;;;;14.45;2.35;;;6.20;99.90;;;;;;5071913;28;20097;-47
2023/01/15 02:12:32;;;;;;;16.10;1.90;;;6.20;99.90;;;;;;5072960;28;20067;-51
2023/01/15 02:15:25;;;;;;;16.85;2.08;;;6.20;99.90;;;;;;5054221;28;20476;-47
2023/01/15 02:18:13;;;;;;;17.23;1.77;;;6.20;99.90;;;;;;5071939;28;20044;-47
2023/01/15 02:20:41;;;;;;;11.82;2.45;;;6.20;99.90;;;;;;5067843;28;20166;-48
2023/01/15 02:23:27;;;;;;;15.43;2.20;;;6.20;99.90;;;;;;5071413;28;20044;-46
2023/01/15 02:26:12;;;;;;;13.82;1.92;;;6.20;99.90;;;;;;5072153;28;20437;-46
2023/01/15 02:28:41;;;;;;;13.90;2.03;;;6.20;99.90;;;;;;5071350;28;20044;-47
2023/01/15 02:31:14;;;;;;;18.50;2.83;;;6.20;99.90;;;;;;5071429;28;20081;-48
2023/01/15 02:33:53;;;;;;;16.55;2.30;;;6.10;99.90;;;;;;5070480;28;20072;-48
2023/01/15 02:36:22;;;;;;;19.48;2.10;;;6.20;99.90;;;;;;5071589;28;20826;-50
2023/01/15 02:38:50;;;;;;;13.68;2.00;;;6.10;99.90;;;;;;5071549;28;20048;-50
2023/01/15 02:41:20;;;;;;;12.45;1.88;;;6.20;99.90;;;;;;5081387;28;20126;-49
2023/01/15 02:43:54;;;;;;;13.25;2.25;;;6.20;99.90;;;;;;5071559;28;20124;-47
2023/01/15 02:46:24;;;;;;;14.02;1.70;;;6.20;99.90;;;;;;5070658;28;20041;-50
2023/01/15 02:48:54;;;;;;;14.85;2.03;;;6.20;99.90;;;;;;5071058;28;20123;-49
2023/01/15 02:51:25;;;;;;;13.40;2.17;;;6.20;99.90;;;;;;5070095;28;20036;-52
2023/01/15 02:53:56;;;;;;;14.73;2.22;;;6.20;99.90;;;;;;5072725;28;20036;-48
2023/01/15 02:56:26;;;;;;;16.63;2.25;;;6.20;99.90;;;;;;5080549;28;20051;-49
2023/01/15 02:58:55;;;;;;;14.63;1.90;;;6.20;99.90;;;;;;5071074;28;20033;-50
2023/01/15 03:01:47;;;;;;;14.23;1.65;;;6.20;99.90;;;;;;5071305;28;20126;-48
2023/01/15 03:04:31;;;;;;;15.23;2.28;;;6.20;99.90;;;;;;5070167;28;20044;-48
2023/01/15 03:07:15;;;;;;;12.23;1.73;;;6.20;99.90;;;;;;5074621;28;20049;-47
2023/01/15 03:09:41;;;;;;;15.25;2.33;;;6.10;99.90;;;;;;5069787;28;20044;-48
2023/01/15 03:13:00;;;;;;;14.15;2.33;;;6.20;99.90;;;;;;5071098;28;20032;-48
2023/01/15 03:16:33;;;;;;;12.10;1.98;;;6.10;99.90;;;;;;5069760;28;20355;-48
2023/01/15 03:18:12;;;;;;;14.43;1.90;;;6.10;99.90;;;;;;5070088;28;20450;-49
2023/01/15 03:20:42;;;;;;;11.82;1.70;;;6.20;99.90;;;;;;5071759;28;20036;-47
2023/01/15 03:23:13;;;;;;;12.05;2.00;;;6.10;99.90;;;;;;5074378;28;20028;-47
2023/01/15 03:25:48;;;;;;;11.43;1.83;;;6.10;99.90;;;;;;5070917;28;20044;-50
2023/01/15 03:28:20;;;;;;;13.50;1.98;;;6.20;99.90;;;;;;5070761;28;20063;-51
2023/01/15 03:30:46;;;;;;;13.98;2.75;;;6.20;99.90;;;;;;5070718;28;20036;-50
2023/01/15 03:33:14;;;;;;;15.02;2.50;;;6.20;99.90;;;;;;5068855;28;20123;-48
2023/01/15 03:35:47;;;;;;;11.18;1.70;;;6.20;99.90;;;;;;5074053;28;20032;-48
2023/01/15 03:38:22;;;;;;;13.00;2.00;;;6.10;99.90;;;;;;5072296;28;20072;-50
2023/01/15 03:41:06;;;;;;;10.20;1.80;;;6.10;99.90;;;;;;5070511;28;20086;-47
2023/01/15 03:43:41;;;;;;;14.80;2.22;;;6.10;99.90;;;;;;5068799;28;20052;-47
2023/01/15 03:46:25;;;;;;;17.73;1.70;;;6.00;99.90;;;;;;5068669;28;20119;-48
2023/01/15 03:48:55;;;;;;;11.98;1.65;;;6.00;99.90;;;;;;5069760;28;20076;-51
2023/01/15 03:51:40;;;;;;;11.85;1.70;;;6.00;99.90;;;;;;5069934;28;20527;-46
2023/01/15 03:54:16;;;;;;;7.03;1.60;;;5.90;99.90;;;;;;5070598;28;20032;-50
2023/01/15 03:56:49;;;;;;;13.82;2.00;;;5.90;99.90;;;;;;5069356;28;20079;-47
2023/01/15 03:59:22;;;;;;;13.33;1.70;;;6.00;99.90;;;;;;5073877;28;20108;-49
2023/01/15 04:01:50;;;;;;;9.82;1.63;;;5.90;99.90;;;;;;5075696;28;20043;-51
2023/01/15 04:04:17;;;;;;;11.20;1.73;;;5.90;99.90;;;;;;5070286;28;20066;-50
2023/01/15 04:06:43;;;;;;;14.10;1.80;;;5.90;99.90;;;;;;5079030;28;20079;-50
2023/01/15 04:09:11;;;;;;;9.20;1.48;;;5.90;99.90;;;;;;5070619;28;20033;-47
2023/01/15 04:11:37;;;;;;;11.55;2.15;;;6.00;99.90;;;;;;5068584;28;20033;-47
2023/01/15 04:14:04;;;;;;;14.75;1.95;;;5.90;99.90;;;;;;5069809;28;20470;-50
2023/01/15 04:16:31;;;;;;;14.15;1.85;;;5.80;99.90;;;;;;5068987;28;20036;-47
2023/01/15 04:18:57;;;;;;;18.13;1.70;;;6.10;99.90;;;;;;5070156;28;20052;-47
2023/01/15 04:21:22;;;;;;;12.10;1.95;;;5.80;99.90;;;;;;5071330;28;20054;-49
2023/01/15 04:23:49;;;;;;;15.35;2.35;;;5.80;99.90;;;;;;5070267;28;20041;-50
2023/01/15 04:26:15;;;;;;;10.13;1.55;;;5.90;99.90;;;;;;5067600;28;20048;-48
2023/01/15 04:28:41;;;;;;;13.43;1.73;;;5.90;99.90;;;;;;5069834;28;20094;-51
2023/01/15 04:31:06;;;;;;;9.15;1.75;;;5.90;99.90;;;;;;5052469;28;20480;-49
2023/01/15 04:33:32;;;;;;;11.48;2.03;;;6.00;99.90;;;;;;5076380;28;20036;-46
2023/01/15 04:36:00;;;;;;;8.77;1.33;;;5.90;99.90;;;;;;5075250;28;20175;-52
2023/01/15 04:38:26;;;;;;;11.63;2.10;;;5.90;99.90;;;;;;5069863;28;20550;-50
2023/01/15 04:46:21;;;;;;;15.55;1.55;;;5.80;99.90;;;;;;5068757;28;20045;-48
2023/01/15 04:48:47;;;;;;;14.70;2.22;;;5.80;99.90;;;;;;5069345;28;20446;-47
2023/01/15 04:51:13;;;;;;;9.82;1.77;;;5.80;99.90;;;;;;5069270;28;20036;-49
2023/01/15 04:53:39;;;;;;;16.13;2.20;;;5.80;99.90;;;;;;5070007;28;20058;-47
2023/01/15 04:56:05;;;;;;;13.50;1.83;;;5.80;99.90;;;;;;5069251;28;20488;-50
2023/01/15 04:58:32;;;;;;;14.15;2.00;;;5.80;99.90;;;;;;5069104;28;20440;-46
2023/01/15 05:00:59;;;;;;;15.38;2.38;;;5.80;99.90;;;;;;5051473;28;20177;-49
2023/01/15 05:03:26;;;;;;;16.67;2.55;;;5.80;99.90;;;;;;5069628;28;20048;-49
2023/01/15 05:05:52;;;;;;;13.40;1.95;;;5.80;99.90;;;;;;5069694;28;20079;-46
2023/01/15 05:08:18;;;;;;;13.15;2.33;;;5.70;99.90;;;;;;5072142;28;20120;-50
2023/01/15 05:10:44;;;;;;;13.93;2.58;;;5.80;99.90;;;;;;5068482;28;20036;-46
2023/01/15 05:13:10;;;;;;;15.55;2.47;;;5.70;99.90;;;;;;5070168;28;20041;-47
2023/01/15 05:15:37;;;;;;;15.82;2.08;;;5.70;99.90;;;;;;5069808;28;20040;-50
2023/01/15 05:18:03;;;;;;;12.68;2.20;;;5.80;99.90;;;;;;5069419;28;20127;-48
2023/01/15 05:20:29;;;;;;;12.52;2.15;;;5.70;99.90;;;;;;5069399;28;20392;-47
2023/01/15 05:22:55;;;;;;;14.95;1.88;;;5.70;99.90;;;;;;5069538;28;20040;-48
2023/01/15 05:25:22;;;;;;;15.68;2.25;;;5.70;99.90;;;;;;5069103;28;20040;-47
2023/01/15 05:27:47;;;;;;;14.75;2.17;;;5.70;99.90;;;;;;5077539;28;20102;-47
2023/01/15 05:30:13;;;;;;;10.10;1.48;;;5.70;99.90;;;;;;5072869;28;20545;-48
2023/01/15 05:32:39;;;;;;;12.48;1.77;;;5.70;99.90;;;;;;5072871;28;20040;-49
2023/01/15 05:35:05;;;;;;;11.15;2.03;;;5.70;99.90;;;;;;5072907;28;20081;-49
2023/01/15 05:37:31;;;;;;;9.65;1.55;;;5.70;99.90;;;;;;5072961;28;20036;-49
2023/01/15 05:39:57;;;;;;;9.95;1.88;;;5.70;99.90;;;;;;5072504;28;20560;-48
2023/01/15 05:42:22;;;;;;;15.18;1.70;;;5.90;99.90;;;;;;5079893;28;20094;-49
2023/01/15 05:44:48;;;;;;;15.52;1.85;;;5.70;99.90;;;;;;5072500;28;20462;-47
2023/01/15 05:47:14;;;;;;;9.00;1.90;;;5.60;99.90;;;;;;5072034;28;20117;-48
2023/01/15 05:49:39;;;;;;;9.40;1.50;;;5.60;99.90;;;;;;5072345;28;20047;-50
2023/01/15 05:52:06;;;;;;;9.98;1.92;;;5.60;99.90;;;;;;5080755;28;20039;-51
2023/01/15 05:54:34;;;;;;;12.43;1.75;;;5.50;99.90;;;;;;5074603;28;20420;-49
2023/01/15 05:57:00;;;;;;;8.55;1.48;;;5.50;99.90;;;;;;5072719;28;20044;-50
2023/01/15 05:59:27;;;;;;;10.13;1.80;;;5.50;99.90;;;;;;5072920;28;20040;-48
2023/01/15 06:01:54;;;;;;;10.45;1.73;;;5.50;99.90;;;;;;5072674;28;20464;-49
2023/01/15 06:04:20;;;;;;;14.38;1.80;;;5.40;99.90;;;;;;5077101;28;20627;-49
2023/01/15 06:06:48;;;;;;;14.85;1.65;;;5.50;99.90;;;;;;5075090;28;20048;-49
2023/01/15 06:09:14;;;;;;;10.68;1.83;;;5.50;99.90;;;;;;5071953;28;20040;-51
2023/01/15 06:11:40;;;;;;;11.15;1.83;;;5.50;99.90;;;;;;5072007;28;20426;-47
2023/01/15 06:14:06;;;;;;;13.85;1.40;;;5.40;99.90;;;;;;5070286;28;20032;-48
2023/01/15 06:16:33;;;;;;;13.77;2.15;;;5.50;99.90;;;;;;5073318;28;20105;-48
2023/01/15 06:19:04;;;;;;;11.35;2.42;;;5.20;99.90;;;;;;5071553;28;20033;-46
2023/01/15 06:21:30;;;;;;;10.95;1.67;;;5.20;99.90;;;;;;5072333;28;20039;-50
2023/01/15 06:23:56;;;;;;;11.82;1.65;;;5.20;99.90;;;;;;5072664;28;20049;-49
2023/01/15 06:26:22;;;;;;;11.32;1.88;;;5.10;99.90;;;;;;5071705;28;20071;-47
2023/01/15 06:28:48;;;;;;;9.43;1.70;;;5.10;99.90;;;;;;5070451;28;20064;-50
2023/01/15 06:31:19;;;;;;;9.25;1.50;;;5.00;99.90;;;;;;5072020;28;20520;-50
2023/01/15 06:33:44;;;;;;;11.45;1.48;;;5.00;99.90;;;;;;5071767;28;20044;-50
2023/01/15 06:36:13;;;;;;;12.13;1.85;;;5.00;99.90;;;;;;5071613;28;20571;-48
2023/01/15 06:38:39;;;;;;;12.23;1.67;;;5.10;99.90;;;;;;5071197;28;20033;-52
2023/01/15 06:49:29;;;;;;;12.73;1.60;;;5.00;99.90;;;;;;5071157;28;20138;-51
2023/01/15 06:51:55;;;;;;;12.75;1.60;;;5.30;99.90;;;;;;5071570;28;20028;-48
2023/01/15 06:54:21;;;;;;;10.27;1.50;;;5.10;99.90;;;;;;5071143;28;20040;-48
2023/01/15 06:56:46;;;;;;;15.23;1.67;;;5.60;99.90;;;;;;5070330;28;20116;-49
2023/01/15 06:59:12;;;;;;;9.05;1.45;;;5.20;99.90;;;;;;5072089;28;20037;-50
2023/01/15 07:01:38;;;;;;;10.85;1.40;;;5.10;99.90;;;;;;5071436;28;20037;-51
2023/01/15 07:04:03;;;;;;;9.15;1.30;;;5.10;99.90;;;;;;5071464;28;20036;-49
2023/01/15 07:06:30;;;;;;;12.90;1.55;;;5.00;99.90;;;;;;5083441;28;20133;-48
2023/01/15 07:08:55;;;;;;;9.10;1.77;;;5.00;99.90;;;;;;5071140;28;20041;-48
2023/01/15 07:11:21;;;;;;;8.60;1.27;;;5.10;99.90;;;;;;5070699;28;20036;-48
2023/01/15 07:13:48;;;;;;;8.23;1.10;;;5.30;99.90;;;;;;5071258;28;20028;-48
2023/01/15 07:16:29;;;;;;;7.03;1.30;;;5.20;99.90;;;;;;5070287;28;20048;-48
2023/01/15 07:18:55;;;;;;;10.98;1.45;;;5.10;99.90;;;;;;5068931;28;20086;-48
2023/01/15 07:21:21;;;;;;;9.23;1.23;;;5.10;99.90;;;;;;5071411;28;20037;-49
2023/01/15 07:23:47;;;;;;;8.25;1.45;;;5.00;99.90;;;;;;5070838;28;20361;-50
2023/01/15 07:26:13;;;;;;;9.05;1.52;;;4.90;99.90;;;;;;5070803;28;20036;-48
2023/01/15 07:28:39;;;;;;;10.43;1.70;;;4.90;99.90;;;;;;5070921;28;20435;-51
2023/01/15 07:31:05;;;;;;;8.45;0.90;;;4.90;99.90;;;;;;5070906;28;20043;-52
2023/01/15 07:33:30;;;;;;;8.30;1.42;;;4.90;99.90;;;;;;5069985;28;20044;-48
2023/01/15 07:35:56;;;;;;;9.70;1.38;;;4.90;99.90;;;;;;5068838;28;20106;-48
2023/01/15 07:38:22;;;;;;;8.90;1.52;;;4.90;99.90;;;;;;5069544;28;20541;-50
2023/01/15 07:49:44;;;;;;;9.93;1.83;;;4.90;99.90;;;;;;5070431;28;20062;-50
2023/01/15 07:51:48;;;;;;;7.60;1.35;;;4.90;99.90;;;;;;5070822;28;20029;-51
2023/01/15 07:54:14;;;;;;;7.75;1.35;;;4.90;99.90;;;;;;5071176;28;20037;-49
2023/01/15 07:56:39;;;;;;;9.82;1.40;;;4.90;99.90;;;;;;5082217;28;20043;-50
2023/01/15 07:59:05;;;;;;;8.35;1.38;;;4.90;99.90;;;;;;5074374;28;20036;-51
2023/01/15 08:01:31;;;;;;;10.40;1.38;;;4.90;99.90;;;;;;5070293;28;20118;-49
2023/01/15 08:03:56;;;;;;;6.60;1.33;;;4.90;99.90;;;;;;5070533;28;20044;-50
2023/01/15 08:06:22;;;;;;;11.20;1.50;;;4.80;99.90;;;;;;5081302;28;20418;-46
2023/01/15 08:08:48;;;;;;;7.55;1.30;;;4.80;99.90;;;;;;5073673;28;20036;-46
2023/01/15 08:16:42;;;;;;;7.57;1.40;;;4.80;99.90;;;;;;5068520;28;20403;-46
2023/01/15 08:19:08;;;;;;;7.90;1.38;;;4.80;99.90;;;;;;5068967;28;20040;-47
2023/01/15 08:21:33;;;;;;;10.95;1.27;;;4.90;99.90;;;;;;5070054;28;20094;-48
2023/01/15 08:23:59;;;;;;;9.63;1.63;;;4.80;99.90;;;;;;5068890;28;20403;-47
2023/01/15 08:26:25;;;;;;;8.85;1.35;;;4.90;99.90;;;;;;5067541;28;20470;-49
2023/01/15 08:28:51;;;;;;;10.18;1.27;;;5.00;99.90;;;;;;5063277;28;20458;-48
2023/01/15 08:31:16;;;;;;;6.15;1.27;;;5.10;99.90;;;;;;5065152;28;20037;-46
2023/01/15 08:33:42;;;;;;;12.25;1.45;;;5.10;99.90;;;;;;5068591;28;20044;-46
2023/01/15 08:36:08;;;;;;;10.32;1.67;;;5.20;99.90;;;;;;5068700;28;20572;-46
2023/01/15 08:38:34;;;;;;;8.48;0.95;;;5.20;99.90;;;;;;5069887;28;20044;-50
2023/01/15 08:41:01;;;;;;;14.10;1.40;;;5.30;99.90;;;;;;5067111;28;20427;-50
2023/01/15 08:43:27;;;;;;;10.90;1.50;;;5.20;99.90;;;;;;5055614;28;20044;-49
2023/01/15 08:45:58;;;;;;;7.63;1.38;;;5.20;99.90;;;;;;5058408;28;20028;-50
2023/01/15 08:48:24;;;;;;;8.48;1.23;;;5.10;99.90;;;;;;5056319;28;20443;-48
2023/01/15 08:50:50;;;;;;;7.40;1.27;;;4.90;99.90;;;;;;5058573;28;20024;-50
2023/01/15 08:53:20;;;;;;;13.40;1.25;;;4.80;99.90;;;;;;5058144;28;20043;-50
2023/01/15 08:55:47;;;;;;;9.90;1.10;;;4.60;99.90;;;;;;5057559;28;20480;-51
2023/01/15 08:58:13;;;;;;;8.98;1.17;;;4.40;99.90;;;;;;5058481;28;21312;-51
2023/01/15 09:00:39;;;;;;;11.35;1.75;;;4.30;99.90;;;;;;5056538;28;20047;-50
2023/01/15 09:03:05;;;;;;;11.43;1.58;;;4.30;99.90;;;;;;5061311;28;20388;-51
2023/01/15 09:05:31;;;;;;;12.70;2.30;;;4.40;99.90;;;;;;5061671;28;20496;-49
2023/01/15 09:07:56;;;;;;;6.78;1.42;;;4.00;99.90;;;;;;5062393;28;20059;-47
2023/01/15 09:10:23;;;;;;;15.57;1.58;;;3.90;99.90;;;;;;5063294;28;20037;-49
2023/01/15 09:12:48;;;;;;;5.57;1.05;;;3.80;99.90;;;;;;5061542;28;20094;-49
2023/01/15 09:15:15;;;;;;;6.88;0.95;;;3.40;99.90;;;;;;5061317;28;20040;-49
2023/01/15 09:17:40;;;;;;;13.77;1.33;;;3.60;99.90;;;;;;5064701;28;20522;-52
2023/01/15 09:20:11;;;;;;;9.52;1.00;;;3.60;99.90;;;;;;5063643;28;20036;-51
2023/01/15 09:22:37;;;;;;;10.15;2.35;;;3.70;99.90;;;;;;5061733;28;20032;-52
2023/01/15 09:25:03;;;;;;;10.38;1.50;;;3.80;99.90;;;;;;5063073;28;20034;-48
2023/01/15 09:27:29;;;;;;;16.65;2.05;;;4.00;99.90;;;;;;5061842;28;20513;-49
2023/01/15 09:29:55;;;;;;;18.77;1.42;;;4.00;99.90;;;;;;5062315;28;20062;-49
2023/01/15 09:32:21;;;;;;;19.40;1.83;;;4.00;99.90;;;;;;5064137;28;20044;-46
2023/01/15 09:34:47;;;;;;;13.23;1.92;;;4.20;99.90;;;;;;5061731;28;20468;-50
2023/01/15 09:37:13;;;;;;;12.55;1.83;;;4.20;99.90;;;;;;5060514;28;20051;-47
2023/01/15 09:39:39;;;;;;;15.18;2.05;;;4.30;99.90;;;;;;5060252;28;20033;-47
2023/01/15 09:42:32;;;;;;;14.25;1.80;;;4.40;99.90;;;;;;5060082;28;20036;-50
2023/01/15 09:45:07;;;;;;;7.80;1.02;;;4.50;99.90;;;;;;5060280;28;20099;-51
2023/01/15 09:47:55;;;;;;;13.60;1.40;;;4.50;99.90;;;;;;5061997;28;20061;-47
2023/01/15 09:50:38;;;;;;;11.32;1.55;;;4.50;99.90;;;;;;5062689;28;20051;-47
2023/01/15 09:53:38;;;;;;;21.42;2.42;;;4.60;99.90;;;;;;5057783;28;21207;-50
2023/01/15 09:56:04;;;;;;;12.55;1.52;;;4.60;99.90;;;;;;5059744;28;20063;-47
2023/01/15 09:58:37;;;;;;;10.38;1.38;;;4.60;99.90;;;;;;5060653;28;20040;-48
2023/01/15 10:01:04;;;;;;;16.30;1.73;;;4.70;99.90;;;;;;5064177;28;20035;-49
2023/01/15 10:03:33;;;;;;;11.02;1.52;;;4.80;99.90;;;;;;5060534;28;20046;-49
2023/01/15 10:06:41;;;;;;;13.80;1.65;;;4.90;99.90;;;;;;5059026;28;20484;-52
2023/01/15 10:09:30;;;;;;;19.23;2.05;;;4.90;99.90;;;;;;5054089;28;20552;-51
2023/01/15 10:12:34;;;;;;;15.88;2.20;;;4.90;99.90;;;;;;5058636;28;20041;-48
2023/01/15 10:15:31;;;;;;;12.30;1.45;;;4.90;99.90;;;;;;5062114;28;20032;-48
2023/01/15 10:17:57;;;;;;;13.63;1.70;;;5.00;99.90;;;;;;5061195;28;20047;-49
2023/01/15 10:20:54;;;;;;;9.52;1.67;;;5.00;99.90;;;;;;5061004;28;20036;-49
2023/01/15 10:23:41;;;;;;;15.13;2.58;;;5.10;99.90;;;;;;5058919;28;20424;-50
2023/01/15 10:26:17;;;;;;;13.32;1.52;;;5.10;99.90;;;;;;5059514;28;20111;-49
2023/01/15 10:28:56;;;;;;;9.82;1.63;;;5.10;99.90;;;;;;5059881;28;20403;-49
2023/01/15 10:31:43;;;;;;;11.32;1.95;;;5.10;99.90;;;;;;5056158;28;20032;-50
2023/01/15 10:34:31;;;;;;;13.07;1.88;;;5.10;99.90;;;;;;5061304;28;20040;-50
2023/01/15 10:37:05;;;;;;;14.85;2.30;;;5.20;99.90;;;;;;5057630;28;20572;-48
2023/01/15 10:39:40;;;;;;;16.17;2.30;;;5.20;99.90;;;;;;5059186;28;20036;-48
2023/01/15 10:42:39;;;;;;;9.18;1.80;;;5.20;99.90;;;;;;5061864;28;20055;-51
2023/01/15 10:45:27;;;;;;;11.77;1.50;;;5.20;99.90;;;;;;5060514;28;20048;-51
2023/01/15 10:48:12;;;;;;;14.25;1.88;;;5.10;99.90;;;;;;5061221;28;20044;-49
2023/01/15 10:50:38;;;;;;;12.57;1.73;;;5.10;99.90;;;;;;5059648;28;20075;-48
2023/01/15 10:53:42;;;;;;;17.00;1.90;;;5.20;99.90;;;;;;5057584;28;20106;-48
2023/01/15 10:56:20;;;;;;;13.65;1.42;;;5.20;99.90;;;;;;5058734;28;20079;-48
2023/01/15 10:58:57;;;;;;;14.55;1.60;;;5.30;99.90;;;;;;5058454;28;20128;-47
2023/01/15 11:01:25;;;;;;;9.52;1.60;;;5.40;99.90;;;;;;5057761;28;20139;-52
2023/01/15 11:03:51;;;;;;;11.38;1.92;;;5.40;99.90;;;;;;5056605;28;20517;-50
2023/01/15 11:06:20;;;;;;;11.20;1.70;;;5.40;99.90;;;;;;5058240;28;20094;-48
2023/01/15 11:08:52;;;;;;;14.80;2.38;;;5.90;99.90;;;;;;5057706;28;20090;-47
2023/01/15 11:20:21;;;;;;;11.85;1.90;;;5.90;99.90;;;;;;5051590;28;20053;-48
2023/01/15 11:22:46;;;;;;;10.77;1.73;;;5.80;99.90;;;;;;5051435;28;20045;-48
2023/01/15 11:25:13;;;;;;;16.90;1.95;;;6.00;99.90;;;;;;5052972;28;20056;-52
2023/01/15 11:27:39;;;;;;;12.40;1.52;;;6.20;99.90;;;;;;5066170;28;20054;-47
2023/01/15 11:30:06;;;;;;;15.77;1.85;;;6.30;99.90;;;;;;5067744;28;20517;-50
2023/01/15 11:32:35;;;;;;;8.82;1.58;;;6.10;99.90;;;;;;5069330;28;20036;-48
2023/01/15 11:35:22;;;;;;;13.95;1.58;;;6.20;99.90;;;;;;5068868;28;20115;-51
2023/01/15 11:37:48;;;;;;;12.93;1.80;;;6.20;99.90;;;;;;5071922;28;20045;-50
2023/01/15 11:40:19;;;;;;;16.48;2.05;;;6.30;99.90;;;;;;5069959;28;20041;-50
2023/01/15 11:51:15;;;;;;;9.95;1.38;;;6.30;99.90;;;;;;5058350;28;19924;-49
2023/01/15 11:53:49;;;;;;;18.88;1.77;;;6.40;99.90;;;;;;5059895;28;20749;-49
2023/01/15 11:56:19;;;;;;;14.45;2.35;;;6.30;99.90;;;;;;5059865;28;20826;-51
2023/01/15 11:58:48;;;;;;;18.35;1.83;;;6.40;99.90;;;;;;5057781;28;20036;-49
2023/01/15 12:01:35;;;;;;;12.00;2.00;;;6.50;99.90;;;;;;5060021;28;20032;-49
2023/01/15 12:04:06;;;;;;;14.70;2.13;;;6.50;99.90;;;;;;5057256;28;20060;-50
2023/01/15 12:06:38;;;;;;;14.40;1.70;;;6.50;99.90;;;;;;5056055;28;20036;-49
2023/01/15 12:09:36;;;;;;;13.23;1.65;;;6.40;99.90;;;;;;5057445;28;20430;-49
2023/01/15 12:12:30;;;;;;;9.80;2.15;;;6.40;99.90;;;;;;5035170;28;20052;-48
2023/01/15 12:15:10;;;;;;;10.93;1.75;;;6.40;99.90;;;;;;5057718;28;20115;-47
2023/01/15 12:18:00;;;;;;;11.25;1.60;;;6.30;99.90;;;;;;5058423;28;20044;-50
2023/01/15 12:20:26;;;;;;;13.00;1.85;;;6.30;99.90;;;;;;5059520;28;20047;-48
2023/01/15 12:23:04;;;;;;;9.98;1.60;;;6.60;99.90;;;;;;5059758;28;20535;-49
2023/01/15 12:25:35;;;;;;;12.57;1.50;;;6.60;99.90;;;;;;5060278;28;20036;-52
2023/01/15 12:28:10;;;;;;;19.67;2.40;;;6.60;99.90;;;;;;5060271;28;20049;-51
2023/01/15 12:31:04;;;;;;;10.52;1.58;;;6.50;99.90;;;;;;5059331;28;20029;-50
2023/01/15 12:33:58;;;;;;;11.15;1.88;;;6.30;99.90;;;;;;5059361;28;20062;-52
2023/01/15 12:36:31;;;;;;;10.77;1.55;;;6.20;99.90;;;;;;5060060;28;20082;-48
2023/01/15 12:39:03;;;;;;;11.80;1.42;;;6.30;99.90;;;;;;5061178;28;20036;-52
2023/01/15 12:44:59;;;;;;;10.93;1.95;;;6.30;99.90;;;;;;5062228;28;20040;-48
2023/01/15 12:47:43;;;;;;;13.95;1.35;;;6.10;99.90;;;;;;5062540;28;20056;-50
2023/01/15 12:50:44;;;;;;;8.23;1.40;;;5.70;99.90;;;;;;5063524;28;20040;-48
2023/01/15 12:53:13;;;;;;;12.27;1.67;;;5.50;99.90;;;;;;5062732;28;20032;-48
2023/01/15 12:56:05;;;;;;;9.27;1.40;;;5.20;99.90;;;;;;5062521;28;20036;-48
2023/01/15 12:59:02;;;;;;;14.38;2.13;;;5.20;99.90;;;;;;5065397;28;20854;-48
2023/01/15 13:02:08;;;;;;;13.85;2.47;;;5.30;99.90;;;;;;5063695;28;20067;-48
2023/01/15 13:04:47;;;;;;;16.60;3.13;;;5.50;99.90;;;;;;5062675;28;20071;-47
2023/01/15 13:07:32;;;;;;;14.30;1.65;;;5.50;99.90;;;;;;5062857;28;20543;-49
2023/01/15 13:10:06;;;;;;;14.55;1.88;;;5.70;99.90;;;;;;5063706;28;20040;-49
2023/01/15 13:12:32;;;;;;;11.57;1.80;;;5.80;99.90;;;;;;5062540;28;20064;-50
2023/01/15 13:14:58;;;;;;;13.35;1.73;;;5.90;99.90;;;;;;5062547;28;20433;-50
2023/01/15 13:17:39;;;;;;;11.32;2.20;;;6.10;99.90;;;;;;5062943;28;20042;-48
2023/01/15 13:20:26;;;;;;;10.95;2.10;;;6.40;99.90;;;;;;5060635;28;20581;-50
2023/01/15 13:23:10;;;;;;;13.48;2.40;;;6.50;99.90;;;;;;5064439;28;20036;-48
2023/01/15 13:25:56;;;;;;;12.30;1.73;;;6.60;99.90;;;;;;5064368;28;20039;-48
2023/01/15 13:28:47;;;;;;;11.02;1.98;;;6.60;99.90;;;;;;5063436;28;20040;-46
2023/01/15 13:31:34;;;;;;;15.30;2.17;;;6.60;99.90;;;;;;5063020;28;20040;-47
2023/01/15 13:34:05;;;;;;;14.32;2.20;;;6.50;99.90;;;;;;5062401;28;20043;-48
2023/01/15 13:36:42;;;;;;;11.63;2.05;;;6.50;99.90;;;;;;5062630;28;20047;-51
2023/01/15 13:39:22;;;;;;;15.93;2.40;;;6.50;99.90;;;;;;5063775;28;20032;-49
2023/01/15 13:44:43;;;;;;;13.32;2.47;;;6.50;99.90;;;;;;5061080;28;20358;-51
2023/01/15 13:47:12;;;;;;;10.93;1.98;;;6.40;99.90;;;;;;5058944;28;20051;-49
2023/01/15 13:49:48;;;;;;;13.15;2.03;;;6.40;99.90;;;;;;5060157;28;20403;-48
2023/01/15 13:52:27;;;;;;;14.43;2.70;;;6.40;99.90;;;;;;5062377;28;20040;-48
2023/01/15 13:54:57;;;;;;;12.52;2.42;;;6.40;99.90;;;;;;5060689;28;20534;-49
2023/01/15 13:57:32;;;;;;;13.25;2.20;;;6.40;99.90;;;;;;5060162;28;20083;-50
2023/01/15 13:59:57;;;;;;;14.25;1.92;;;6.40;99.90;;;;;;5062157;28;20044;-48
2023/01/15 14:02:28;;;;;;;14.65;2.00;;;6.40;99.90;;;;;;5062490;28;20046;-48
2023/01/15 14:04:54;;;;;;;13.65;1.42;;;6.40;99.90;;;;;;5060594;28;20043;-47
2023/01/15 14:07:32;;;;;;;8.00;0.90;;;6.10;99.90;;;;;;5061799;28;20137;-48
2023/01/15 14:10:23;;;;;;;5.55;1.08;;;5.30;99.90;;;;;;5062294;28;20044;-53